createdAt,value
2023-05-05T00:02:44.987Z,2.30
2023-05-05T00:05:54.897Z,2.35
2023-05-05T00:08:57.967Z,2.20
2023-05-05T00:12:03.687Z,2.30
2023-05-05T00:15:07.520Z,2.00
2023-05-05T00:18:10.932Z,2.75
2023-05-05T00:21:13.814Z,2.58
2023-05-05T00:24:16.540Z,2.53
2023-05-05T00:27:19.297Z,2.40
2023-05-05T00:30:22.662Z,2.25
2023-05-05T00:33:25.971Z,2.05
2023-05-05T00:36:28.751Z,2.50
2023-05-05T00:39:31.443Z,2.17
2023-05-05T00:42:42.629Z,2.40
2023-05-05T00:45:47.863Z,2.42
2023-05-05T00:48:51.767Z,2.30
2023-05-05T00:51:55.229Z,2.60
2023-05-05T00:54:58.381Z,2.00
2023-05-05T00:58:03.233Z,2.00
2023-05-05T01:01:06.080Z,2.05
2023-05-05T01:04:09.078Z,2.33
2023-05-05T01:07:31.453Z,2.45
2023-05-05T01:10:49.072Z,2.33
2023-05-05T01:14:13.694Z,2.40
2023-05-05T01:17:19.625Z,2.53
2023-05-05T01:20:38.148Z,2.13
2023-05-05T01:24:11.174Z,2.50
2023-05-05T01:27:35.583Z,2.27
2023-05-05T01:31:18.359Z,2.05
2023-05-05T01:34:28.027Z,2.13
2023-05-05T01:37:40.415Z,2.22
2023-05-05T01:40:50.106Z,2.20
2023-05-05T01:43:54.517Z,2.07
2023-05-05T01:46:59.934Z,2.03
2023-05-05T01:50:04.512Z,2.10
2023-05-05T01:53:09.762Z,2.13
2023-05-05T01:56:13.442Z,2.25
2023-05-05T01:59:17.988Z,2.20
2023-05-05T02:02:22.539Z,2.25
2023-05-05T02:05:27.227Z,2.05
2023-05-05T02:08:31.496Z,1.80
2023-05-05T02:11:35.069Z,2.03
2023-05-05T02:14:40.762Z,2.30
2023-05-05T02:17:46.491Z,1.75
2023-05-05T02:20:49.724Z,2.50
2023-05-05T02:23:52.921Z,2.10
2023-05-05T02:26:58.012Z,2.40
2023-05-05T02:30:06.966Z,2.10
2023-05-05T02:33:11.906Z,2.03
2023-05-05T02:36:17.025Z,2.00
2023-05-05T02:39:43.828Z,2.20
2023-05-05T02:42:54.496Z,2.17
2023-05-05T02:46:01.176Z,2.10
2023-05-05T02:49:05.686Z,2.15
2023-05-05T02:52:08.982Z,2.03
2023-05-05T02:55:14.077Z,2.03
2023-05-05T02:58:22.712Z,2.17
2023-05-05T03:01:46.783Z,1.90
2023-05-05T03:05:06.766Z,2.10
2023-05-05T03:08:27.079Z,2.03
2023-05-05T03:11:38.665Z,1.90
2023-05-05T03:14:46.148Z,1.98
2023-05-05T03:17:54.012Z,2.00
2023-05-05T03:20:57.618Z,2.00
2023-05-05T03:24:00.507Z,2.50
2023-05-05T03:27:03.280Z,1.98
2023-05-05T03:30:11.225Z,2.00
2023-05-05T03:33:21.981Z,2.10
2023-05-05T03:36:26.188Z,2.13
2023-05-05T03:39:31.309Z,2.13
2023-05-05T03:42:34.697Z,2.00
2023-05-05T03:45:37.992Z,2.10
2023-05-05T03:48:41.950Z,1.80
2023-05-05T03:51:44.735Z,1.70
2023-05-05T03:54:47.665Z,1.85
2023-05-05T03:57:50.522Z,2.20
2023-05-05T04:00:53.482Z,1.70
2023-05-05T04:03:56.781Z,1.90
2023-05-05T04:06:59.578Z,1.80
2023-05-05T04:10:02.623Z,1.90
2023-05-05T04:13:05.646Z,1.75
2023-05-05T04:16:09.129Z,2.30
2023-05-05T04:19:13.680Z,1.60
2023-05-05T04:22:16.880Z,1.80
2023-05-05T04:25:20.003Z,1.95
2023-05-05T04:28:24.317Z,2.10
2023-05-05T04:31:27.815Z,1.85
2023-05-05T04:34:30.923Z,1.77
2023-05-05T04:37:33.798Z,1.75
2023-05-05T04:40:43.383Z,2.00
2023-05-05T04:43:47.457Z,1.70
2023-05-05T04:46:51.255Z,1.77
2023-05-05T04:49:57.125Z,1.83
2023-05-05T04:53:00.067Z,1.58
2023-05-05T04:56:02.990Z,1.67
2023-05-05T04:59:06.170Z,1.65
2023-05-05T05:02:09.046Z,1.90
2023-05-05T05:05:11.855Z,1.93
2023-05-05T05:08:18.306Z,2.05
2023-05-05T05:11:22.196Z,1.90
2023-05-05T05:14:25.816Z,2.10
2023-05-05T05:17:30.595Z,2.30
2023-05-05T05:20:34.335Z,1.90
2023-05-05T05:23:37.403Z,1.90
2023-05-05T05:26:40.275Z,2.08
2023-05-05T05:29:43.957Z,1.80
2023-05-05T05:32:47.321Z,2.10
2023-05-05T05:35:50.766Z,2.03
2023-05-05T05:38:55.984Z,1.70
2023-05-05T05:41:58.878Z,1.83
2023-05-05T05:45:01.937Z,1.80
2023-05-05T05:48:06.032Z,1.77
2023-05-05T05:51:09.422Z,1.80
2023-05-05T05:54:12.716Z,1.77
2023-05-05T05:57:16.527Z,2.53
2023-05-05T06:00:19.448Z,1.63
2023-05-05T06:03:27.494Z,1.80
2023-05-05T06:06:30.369Z,1.90
2023-05-05T06:09:34.489Z,1.75
2023-05-05T06:12:37.336Z,2.25
2023-05-05T06:15:40.182Z,2.00
2023-05-05T06:18:43.502Z,2.25
2023-05-05T06:21:46.775Z,2.27
2023-05-05T06:24:49.992Z,2.10
2023-05-05T06:27:53.289Z,2.40
2023-05-05T06:30:56.651Z,2.40
2023-05-05T06:33:59.457Z,2.67
2023-05-05T06:37:02.893Z,1.87
2023-05-05T06:40:07.201Z,2.42
2023-05-05T06:43:10.132Z,2.13
2023-05-05T06:46:17.888Z,2.15
2023-05-05T06:49:21.692Z,3.42
2023-05-05T06:52:26.073Z,3.53
2023-05-05T06:55:28.898Z,2.92
2023-05-05T06:58:31.921Z,3.05
2023-05-05T07:01:34.680Z,2.78
2023-05-05T07:04:38.076Z,2.90
2023-05-05T07:07:57.269Z,2.80
2023-05-05T07:11:20.727Z,3.30
2023-05-05T07:14:24.449Z,3.10
2023-05-05T07:17:29.060Z,3.17
2023-05-05T07:20:33.313Z,3.20
2023-05-05T07:23:38.016Z,3.03
2023-05-05T07:26:41.111Z,2.90
2023-05-05T07:29:43.892Z,3.15
2023-05-05T07:32:47.145Z,3.10
2023-05-05T07:35:49.880Z,3.33
2023-05-05T07:38:52.590Z,2.97
2023-05-05T07:41:55.761Z,3.20
2023-05-05T07:44:58.454Z,3.22
2023-05-05T07:48:01.330Z,3.30
2023-05-05T07:51:04.274Z,3.47
2023-05-05T07:54:07.097Z,3.13
2023-05-05T07:57:12.975Z,3.10
2023-05-05T08:00:16.624Z,3.30
2023-05-05T08:03:24.289Z,3.28
2023-05-05T08:06:29.128Z,3.55
2023-05-05T08:09:32.091Z,3.13
2023-05-05T08:12:35.710Z,3.55
2023-05-05T08:15:39.004Z,2.90
2023-05-05T08:18:43.026Z,3.30
2023-05-05T08:21:46.216Z,3.17
2023-05-05T08:24:49.417Z,3.00
2023-05-05T08:27:52.049Z,3.25
2023-05-05T08:30:55.216Z,3.13
2023-05-05T08:33:58.040Z,3.25
2023-05-05T08:37:00.942Z,3.08
2023-05-05T08:40:04.170Z,2.93
2023-05-05T08:43:07.715Z,2.78
2023-05-05T08:46:12.523Z,3.00
2023-05-05T08:49:17.662Z,2.80
2023-05-05T08:52:24.221Z,3.30
2023-05-05T08:55:29.900Z,2.70
2023-05-05T08:58:38.436Z,2.72
2023-05-05T09:01:43.068Z,2.80
2023-05-05T09:04:46.275Z,2.60
2023-05-05T09:07:50.177Z,3.08
2023-05-05T09:10:55.025Z,2.53
2023-05-05T09:17:27.800Z,3.08
2023-05-05T09:20:41.229Z,2.60
2023-05-05T09:24:09.276Z,2.78
2023-05-05T09:27:23.638Z,2.77
2023-05-05T09:30:27.245Z,2.03
2023-05-05T09:33:31.338Z,2.50
2023-05-05T09:36:50.399Z,2.30
2023-05-05T09:39:59.199Z,2.50
2023-05-05T09:43:03.424Z,2.40
2023-05-05T09:46:07.835Z,2.78
2023-05-05T09:49:18.823Z,2.72
2023-05-05T09:52:22.935Z,2.50
2023-05-05T09:55:34.561Z,2.40
2023-05-05T09:58:41.989Z,2.40
2023-05-05T10:01:45.112Z,2.38
2023-05-05T10:04:48.558Z,2.28
2023-05-05T10:07:52.210Z,2.50
2023-05-05T10:11:06.594Z,2.50
2023-05-05T10:14:13.014Z,2.43
2023-05-05T10:17:16.516Z,2.78
2023-05-05T10:20:20.214Z,2.50
2023-05-05T10:23:24.615Z,2.05
2023-05-05T10:26:31.891Z,2.60
2023-05-05T10:30:04.817Z,2.63
2023-05-05T10:33:30.883Z,2.38
2023-05-05T10:36:34.760Z,2.30
2023-05-05T10:39:38.249Z,2.45
2023-05-05T10:42:43.671Z,2.30
2023-05-05T10:45:46.781Z,2.57
2023-05-05T10:49:12.468Z,2.45
2023-05-05T10:52:24.861Z,2.30
2023-05-05T10:55:52.447Z,2.17
2023-05-05T10:59:00.055Z,3.00
2023-05-05T11:02:23.845Z,2.50
2023-05-05T11:05:26.858Z,3.22
2023-05-05T11:08:31.636Z,2.63
2023-05-05T11:12:04.782Z,2.67
2023-05-05T11:15:29.134Z,3.00
2023-05-05T11:18:44.518Z,2.60
2023-05-05T11:22:03.173Z,2.33
2023-05-05T11:25:34.802Z,2.42
2023-05-05T11:28:55.122Z,2.55
2023-05-05T11:32:14.226Z,2.33
2023-05-05T11:35:17.198Z,2.17
2023-05-05T11:38:26.411Z,2.13
2023-05-05T11:41:36.406Z,2.58
2023-05-05T11:44:39.323Z,2.33
2023-05-05T11:47:46.801Z,2.58
2023-05-05T11:50:50.910Z,2.10
2023-05-05T11:53:53.853Z,2.13
2023-05-05T11:57:02.416Z,2.28
2023-05-05T12:00:08.329Z,2.13
2023-05-05T12:03:11.852Z,2.35
2023-05-05T12:06:14.873Z,2.70
2023-05-05T12:09:20.173Z,2.22
2023-05-05T12:12:36.930Z,2.15
2023-05-05T12:15:40.248Z,2.42
2023-05-05T12:18:43.096Z,2.53
2023-05-05T12:21:46.124Z,2.40
2023-05-05T12:24:56.523Z,2.45
2023-05-05T12:27:59.290Z,2.20
2023-05-05T12:31:02.589Z,2.50
2023-05-05T12:34:06.696Z,2.20
2023-05-05T12:37:09.523Z,2.20
2023-05-05T12:40:45.151Z,2.28
2023-05-05T12:43:48.161Z,2.40
2023-05-05T12:46:53.081Z,2.10
2023-05-05T12:49:56.218Z,2.00
2023-05-05T12:52:59.014Z,2.33
2023-05-05T12:56:01.951Z,2.35
2023-05-05T12:59:09.641Z,1.92
2023-05-05T13:02:12.639Z,2.35
2023-05-05T13:05:30.164Z,2.40
2023-05-05T13:08:46.145Z,2.43
2023-05-05T13:11:49.212Z,2.00
2023-05-05T13:14:51.979Z,2.65
2023-05-05T13:18:01.461Z,2.10
2023-05-05T13:21:04.542Z,2.00
2023-05-05T13:27:13.214Z,2.30
2023-05-05T13:30:15.911Z,2.30
2023-05-05T13:33:18.665Z,2.28
2023-05-05T13:36:21.733Z,2.58
2023-05-05T13:39:25.603Z,2.63
2023-05-05T13:42:28.294Z,2.30
2023-05-05T13:45:33.099Z,2.53
2023-05-05T13:48:35.752Z,2.60
2023-05-05T13:51:39.275Z,2.30
2023-05-05T13:54:42.110Z,2.27
2023-05-05T13:57:44.830Z,2.70
2023-05-05T14:00:47.770Z,2.40
2023-05-05T14:03:50.870Z,2.30
2023-05-05T14:06:53.651Z,1.85
2023-05-05T14:09:56.596Z,2.60
2023-05-05T14:12:59.359Z,2.60
2023-05-05T14:16:02.340Z,2.50
2023-05-05T14:19:05.529Z,2.65
2023-05-05T14:22:08.207Z,2.33
2023-05-05T14:25:10.977Z,2.10
2023-05-05T14:28:13.713Z,2.10
2023-05-05T14:31:17.585Z,2.05
2023-05-05T14:34:20.389Z,2.25
2023-05-05T14:37:23.409Z,2.53
2023-05-05T14:40:26.203Z,2.57
2023-05-05T14:43:28.991Z,2.15
2023-05-05T14:46:32.262Z,2.30
2023-05-05T14:49:35.026Z,2.38
2023-05-05T14:52:40.441Z,2.28
2023-05-05T14:55:43.258Z,2.27
2023-05-05T14:58:47.706Z,2.42
2023-05-05T15:01:53.821Z,2.58
2023-05-05T15:04:57.683Z,2.30
2023-05-05T15:08:03.909Z,2.08
2023-05-05T15:11:06.799Z,2.10
2023-05-05T15:14:09.587Z,2.10
2023-05-05T15:17:12.416Z,2.58
2023-05-05T15:20:15.106Z,2.20
2023-05-05T15:23:18.008Z,2.33
2023-05-05T15:26:21.375Z,2.10
2023-05-05T15:29:24.831Z,2.00
2023-05-05T15:32:27.615Z,2.42
2023-05-05T15:35:30.980Z,2.72
2023-05-05T15:38:34.045Z,2.38
2023-05-05T15:41:36.819Z,2.20
2023-05-05T15:44:40.042Z,2.10
2023-05-05T15:47:42.870Z,2.20
2023-05-05T15:50:45.689Z,1.98
2023-05-05T15:53:48.645Z,2.22
2023-05-05T15:56:51.331Z,2.47
2023-05-05T15:59:54.894Z,2.28
2023-05-05T16:02:57.801Z,2.28
2023-05-05T16:06:00.648Z,2.20
2023-05-05T16:09:03.984Z,2.40
2023-05-05T16:12:06.761Z,2.30
2023-05-05T16:15:10.219Z,2.10
2023-05-05T16:18:13.274Z,2.22
2023-05-05T16:21:16.296Z,2.03
2023-05-05T16:24:19.173Z,2.50
2023-05-05T16:27:21.908Z,2.07
2023-05-05T16:30:24.799Z,2.00
2023-05-05T16:33:28.688Z,2.25
2023-05-05T16:36:31.938Z,1.70
2023-05-05T16:39:40.270Z,2.55
2023-05-05T16:42:44.510Z,2.17
2023-05-05T16:45:55.693Z,2.35
2023-05-05T16:48:58.329Z,2.40
2023-05-05T16:52:01.153Z,2.75
2023-05-05T16:55:04.944Z,2.70
2023-05-05T16:58:07.872Z,2.40
2023-05-05T17:01:10.753Z,2.20
2023-05-05T17:04:14.101Z,2.30
2023-05-05T17:07:16.851Z,2.40
2023-05-05T17:10:20.011Z,2.63
2023-05-05T17:13:23.617Z,2.60
2023-05-05T17:16:26.396Z,2.28
2023-05-05T17:19:29.221Z,2.10
2023-05-05T17:22:32.241Z,2.03
2023-05-05T17:25:36.009Z,2.20
2023-05-05T17:28:38.825Z,1.87
2023-05-05T17:31:42.187Z,2.38
2023-05-05T17:34:44.860Z,2.33
2023-05-05T17:37:48.109Z,1.70
2023-05-05T17:40:50.863Z,2.20
2023-05-05T17:43:53.928Z,2.00
2023-05-05T17:46:56.580Z,1.90
2023-05-05T17:49:59.634Z,2.25
2023-05-05T17:53:02.361Z,2.00
2023-05-05T17:56:07.988Z,2.30
2023-05-05T17:59:11.755Z,2.27
2023-05-05T18:02:14.568Z,1.80
2023-05-05T18:05:17.468Z,2.55
2023-05-05T18:08:20.240Z,2.20
2023-05-05T18:11:26.912Z,1.80
2023-05-05T18:14:29.977Z,1.80
2023-05-05T18:17:32.668Z,1.88
2023-05-05T18:20:35.686Z,2.25
2023-05-05T18:23:41.710Z,2.17
2023-05-05T18:26:47.159Z,2.05
2023-05-05T18:29:50.074Z,2.20
2023-05-05T18:32:52.937Z,2.40
2023-05-05T18:35:56.607Z,2.13
2023-05-05T18:39:03.144Z,2.10
2023-05-05T18:42:05.992Z,2.28
2023-05-05T18:45:10.753Z,2.43
2023-05-05T18:48:13.576Z,2.15
2023-05-05T18:51:16.965Z,2.08
2023-05-05T18:54:21.328Z,1.95
2023-05-05T18:57:24.127Z,2.35
2023-05-05T19:00:28.094Z,1.93
2023-05-05T19:03:33.746Z,2.15
2023-05-05T19:06:38.645Z,2.20
2023-05-05T19:09:41.419Z,2.17
2023-05-05T19:12:44.641Z,2.00
2023-05-05T19:15:47.354Z,2.07
2023-05-05T19:18:50.155Z,2.15
2023-05-05T19:21:52.910Z,2.00
2023-05-05T19:24:55.861Z,2.00
2023-05-05T19:27:58.588Z,2.25
2023-05-05T19:31:01.391Z,2.00
2023-05-05T19:34:05.259Z,2.55
2023-05-05T19:37:08.137Z,2.28
2023-05-05T19:40:11.698Z,2.10
2023-05-05T19:43:15.233Z,2.20
2023-05-05T19:46:19.162Z,2.03
2023-05-05T19:49:22.183Z,2.00
2023-05-05T19:52:28.213Z,2.10
2023-05-05T19:55:31.194Z,1.98
2023-05-05T19:58:55.805Z,2.13
2023-05-05T20:01:59.573Z,2.10
2023-05-05T20:05:02.807Z,1.90
2023-05-05T20:08:05.950Z,2.00
2023-05-05T20:11:08.624Z,2.10
2023-05-05T20:14:15.217Z,2.25
2023-05-05T20:17:20.372Z,2.10
2023-05-05T20:20:23.155Z,1.83
2023-05-05T20:23:28.796Z,1.83
2023-05-05T20:26:32.065Z,2.30
2023-05-05T20:29:35.218Z,2.40
2023-05-05T20:32:39.077Z,2.10
2023-05-05T20:35:41.894Z,2.03
2023-05-05T20:38:45.140Z,2.08
2023-05-05T20:41:48.892Z,2.10
2023-05-05T20:44:51.866Z,2.08
2023-05-05T20:47:54.596Z,2.10
2023-05-05T20:50:58.875Z,1.73
2023-05-05T20:54:02.720Z,2.50
2023-05-05T20:57:07.303Z,1.85
2023-05-05T21:00:10.959Z,2.15
2023-05-05T21:03:14.183Z,1.77
2023-05-05T21:06:17.470Z,2.00
2023-05-05T21:09:21.664Z,1.90
2023-05-05T21:12:24.387Z,2.30
2023-05-05T21:15:27.307Z,1.80
2023-05-05T21:18:30.242Z,2.00
2023-05-05T21:21:33.192Z,1.95
2023-05-05T21:24:38.617Z,2.00
2023-05-05T21:27:41.665Z,2.00
2023-05-05T21:30:45.216Z,1.80
2023-05-05T21:33:51.133Z,2.20
2023-05-05T21:36:53.889Z,2.17
2023-05-05T21:39:56.622Z,2.20
2023-05-05T21:42:59.400Z,2.03
2023-05-05T21:46:04.097Z,1.98
2023-05-05T21:49:14.588Z,1.80
2023-05-05T21:52:21.821Z,1.90
2023-05-05T21:55:25.634Z,2.10
2023-05-05T21:58:29.246Z,1.75
2023-05-05T22:01:32.366Z,2.30
2023-05-05T22:04:35.473Z,2.03
2023-05-05T22:07:38.357Z,1.67
2023-05-05T22:10:41.273Z,2.05
2023-05-05T22:13:44.262Z,2.17
2023-05-05T22:16:47.991Z,1.58
2023-05-05T22:19:54.343Z,2.47
2023-05-05T22:22:58.217Z,1.80
2023-05-05T22:26:01.068Z,2.22
2023-05-05T22:29:03.977Z,2.13
2023-05-05T22:32:07.106Z,2.10
2023-05-05T22:35:10.638Z,1.77
2023-05-05T22:38:13.653Z,1.90
2023-05-05T22:41:16.408Z,2.33
2023-05-05T22:44:19.111Z,2.00
2023-05-05T22:47:21.860Z,1.73
2023-05-05T22:50:24.663Z,2.20
2023-05-05T22:53:27.742Z,2.00
2023-05-05T22:56:30.545Z,2.03
2023-05-05T22:59:33.842Z,1.87
2023-05-05T23:02:37.325Z,2.00
2023-05-05T23:05:41.004Z,2.20
2023-05-05T23:08:46.549Z,1.92
2023-05-05T23:11:50.180Z,2.03
2023-05-05T23:14:53.811Z,2.00
2023-05-05T23:17:56.586Z,2.20
2023-05-05T23:21:02.274Z,1.75
2023-05-05T23:24:05.193Z,2.15
2023-05-05T23:27:08.011Z,2.00
2023-05-05T23:30:12.111Z,1.93
2023-05-05T23:33:15.050Z,2.00
2023-05-05T23:36:18.361Z,2.13
2023-05-05T23:39:21.656Z,2.03
2023-05-05T23:42:27.886Z,2.13
2023-05-05T23:45:30.978Z,1.90
2023-05-05T23:48:33.662Z,1.80
2023-05-05T23:51:36.462Z,2.08
2023-05-05T23:54:39.282Z,2.00
2023-05-05T23:57:42.246Z,1.83
